Terminal Aerodrome Forecast
Issued by NWS Brownsville, TX

Home | Current Version | Previous Version | Text Only | Print | Product List | Glossary On
Versions: 1 2 3 4 5 6 7 8 9 10 11 12 13 14 15 16 17 18 19 20 21 22 23
000
FTUS44 KBRO 022330
TAFMFE
TAF
KMFE 022330Z 0300/0324 15012G18KT P6SM SCT040
     FM030200 14010KT P6SM FEW020
     FM030900 15006KT P6SM BKN015
     FM031500 15016G22KT P6SM SCT030=

USA.gov is the U.S. government's official web portal to all federal, state and local government web resources and services.